Time;durP1;ratioP1;P1;durP2;ratioP2;P2;SDS_P1;SDS_P2;PMS_P1;PMS_P2;Temp;Humidity;BMP_temperature;BMP_pressure;BME280_temperature;BME280_humidity;BME280_pressure;Samples;Min_cycle;Max_cycle;Signal;HPM_P1;HPM_P2
2022/02/18 00:01:00;;;;;;;27.13;4.90;;;11.20;99.90;;;;;;5040582;28;21017;-75
2022/02/18 00:03:26;;;;;;;21.10;4.60;;;11.10;99.90;;;;;;5037934;28;20508;-75
2022/02/18 00:05:53;;;;;;;15.13;4.33;;;11.20;99.90;;;;;;5036186;28;20441;-72
2022/02/18 00:08:20;;;;;;;14.40;4.53;;;11.20;99.90;;;;;;5021768;28;20441;-73
2022/02/18 00:10:45;;;;;;;15.50;4.40;;;11.20;99.90;;;;;;5037066;28;21111;-75
2022/02/18 00:13:12;;;;;;;16.80;5.33;;;11.10;99.90;;;;;;5042129;28;20469;-74
2022/02/18 00:15:38;;;;;;;17.20;3.77;;;11.10;99.90;;;;;;5037108;28;20199;-74
2022/02/18 00:18:04;;;;;;;10.27;4.20;;;11.10;99.90;;;;;;5036427;28;21031;-72
2022/02/18 00:20:34;;;;;;;16.07;4.00;;;11.10;99.90;;;;;;5039996;28;20215;-72
2022/02/18 00:23:05;;;;;;;17.50;4.17;;;11.20;99.90;;;;;;5038477;28;20457;-74
2022/02/18 00:25:32;;;;;;;12.10;4.00;;;11.20;99.90;;;;;;5040463;28;20488;-73
2022/02/18 00:28:01;;;;;;;10.20;3.90;;;11.10;99.90;;;;;;5034916;28;20442;-72
2022/02/18 00:30:28;;;;;;;11.03;4.53;;;11.10;99.90;;;;;;5042833;28;20434;-71
2022/02/18 00:32:54;;;;;;;15.13;4.60;;;11.10;99.90;;;;;;5021763;28;21376;-72
2022/02/18 00:35:19;;;;;;;20.07;4.07;;;11.10;99.90;;;;;;5037129;28;20452;-73
2022/02/18 00:37:52;;;;;;;17.70;4.30;;;11.10;99.90;;;;;;5034054;28;20199;-72
2022/02/18 00:40:17;;;;;;;18.20;4.23;;;11.10;99.90;;;;;;5033778;28;20251;-72
2022/02/18 00:42:43;;;;;;;15.60;3.33;;;11.10;99.90;;;;;;5036492;28;20554;-71
2022/02/18 00:45:11;;;;;;;18.37;4.43;;;11.10;99.90;;;;;;5035542;28;20183;-72
2022/02/18 00:47:37;;;;;;;24.40;5.60;;;11.10;99.90;;;;;;5033358;28;20198;-74
2022/02/18 00:50:04;;;;;;;15.87;3.93;;;11.10;99.90;;;;;;5036281;28;20453;-72
2022/02/18 00:52:29;;;;;;;17.60;4.00;;;11.20;99.90;;;;;;5036225;28;20511;-72
2022/02/18 00:54:55;;;;;;;15.33;3.70;;;11.20;99.90;;;;;;5032749;28;20844;-72
2022/02/18 00:57:21;;;;;;;19.83;4.10;;;11.20;99.90;;;;;;5035670;28;20791;-72
2022/02/18 00:59:46;;;;;;;10.43;3.80;;;11.20;99.90;;;;;;5036245;28;20365;-73
2022/02/18 01:02:12;;;;;;;16.30;3.80;;;11.20;99.90;;;;;;5034066;28;20192;-73
2022/02/18 01:04:38;;;;;;;13.63;4.10;;;11.20;99.90;;;;;;5032867;28;20716;-74
2022/02/18 01:07:04;;;;;;;18.70;4.47;;;11.20;99.90;;;;;;5033912;28;20190;-73
2022/02/18 01:09:29;;;;;;;13.77;4.37;;;11.20;99.90;;;;;;5037209;28;20305;-74
2022/02/18 01:11:55;;;;;;;15.07;3.97;;;11.20;99.90;;;;;;5035860;28;20525;-73
2022/02/18 01:14:21;;;;;;;16.10;4.87;;;11.20;99.90;;;;;;5017986;28;20219;-73
2022/02/18 01:16:46;;;;;;;14.87;4.77;;;11.30;99.90;;;;;;5032359;28;20192;-74
2022/02/18 01:19:12;;;;;;;17.00;3.80;;;11.20;99.90;;;;;;5031482;28;20267;-73
2022/02/18 01:21:38;;;;;;;7.90;3.90;;;11.20;99.90;;;;;;5039509;28;20294;-72
2022/02/18 01:24:05;;;;;;;15.53;3.53;;;11.30;99.90;;;;;;5032944;28;20590;-72
2022/02/18 01:26:32;;;;;;;17.33;3.93;;;11.20;99.90;;;;;;5032744;28;20184;-72
2022/02/18 01:28:58;;;;;;;12.97;4.67;;;11.20;99.90;;;;;;5034112;28;20457;-73
2022/02/18 01:31:25;;;;;;;22.17;4.50;;;11.20;99.90;;;;;;5035173;28;20735;-72
2022/02/18 01:33:52;;;;;;;15.50;3.47;;;11.20;99.90;;;;;;5033471;28;20212;-72
2022/02/18 01:36:19;;;;;;;23.37;4.50;;;11.10;99.90;;;;;;5036240;28;20439;-72
2022/02/18 01:38:45;;;;;;;18.03;6.40;;;11.20;99.90;;;;;;5033984;28;20455;-73
2022/02/18 01:41:11;;;;;;;9.80;4.70;;;11.10;99.90;;;;;;5032250;28;20516;-73
2022/02/18 01:43:37;;;;;;;20.43;5.10;;;11.20;99.90;;;;;;5034651;28;20211;-73
2022/02/18 01:46:04;;;;;;;12.07;3.80;;;11.10;99.90;;;;;;5036753;28;20486;-72
2022/02/18 01:48:30;;;;;;;13.07;3.83;;;11.10;99.90;;;;;;5036891;28;20997;-72
2022/02/18 01:50:58;;;;;;;16.93;3.97;;;11.10;99.90;;;;;;5035912;28;20443;-74
2022/02/18 01:53:24;;;;;;;16.70;3.83;;;11.10;99.90;;;;;;5033600;28;20465;-73
2022/02/18 01:55:49;;;;;;;22.33;3.97;;;11.10;99.90;;;;;;5035186;28;20838;-75
2022/02/18 01:58:16;;;;;;;12.73;4.73;;;11.20;99.90;;;;;;5035267;28;20445;-76
2022/02/18 02:00:41;;;;;;;12.40;3.70;;;11.20;99.90;;;;;;5034817;28;20254;-74
2022/02/18 02:03:07;;;;;;;12.40;4.30;;;11.30;99.90;;;;;;5034214;28;21159;-74
2022/02/18 02:05:33;;;;;;;14.53;4.60;;;11.30;99.90;;;;;;5032903;28;20192;-74
2022/02/18 02:07:59;;;;;;;17.20;5.40;;;11.30;99.90;;;;;;5033378;28;20576;-74
2022/02/18 02:10:25;;;;;;;13.53;4.67;;;11.30;99.90;;;;;;5035634;28;20465;-73
2022/02/18 02:12:52;;;;;;;14.83;4.87;;;11.30;99.90;;;;;;5032646;28;20470;-73
2022/02/18 02:15:24;;;;;;;20.40;4.33;;;11.30;99.90;;;;;;5033797;28;20210;-73
2022/02/18 02:17:50;;;;;;;15.60;3.67;;;11.30;99.90;;;;;;5032118;28;21381;-73
2022/02/18 02:20:17;;;;;;;14.37;3.60;;;11.30;99.90;;;;;;5034626;28;20482;-74
2022/02/18 02:22:43;;;;;;;10.67;3.40;;;11.30;99.90;;;;;;5031537;28;20525;-73
2022/02/18 02:25:09;;;;;;;9.67;3.13;;;11.30;99.90;;;;;;5031397;28;21026;-73
2022/02/18 02:27:34;;;;;;;15.87;4.40;;;11.20;99.90;;;;;;5032671;28;20481;-73
2022/02/18 02:30:01;;;;;;;14.63;4.07;;;11.20;99.90;;;;;;5036147;28;20473;-73
2022/02/18 02:32:26;;;;;;;12.03;3.57;;;11.10;99.90;;;;;;5032242;28;20211;-73
2022/02/18 02:34:52;;;;;;;20.50;4.00;;;11.10;99.90;;;;;;5029080;28;20437;-72
2022/02/18 02:37:18;;;;;;;16.07;4.80;;;11.10;99.90;;;;;;5032653;28;20321;-73
2022/02/18 02:39:44;;;;;;;17.73;3.93;;;11.10;99.90;;;;;;5029076;28;20481;-73
2022/02/18 02:42:10;;;;;;;11.40;4.10;;;11.00;99.90;;;;;;5034497;28;20329;-73
2022/02/18 02:44:36;;;;;;;14.77;3.93;;;11.00;99.90;;;;;;5033160;28;20180;-75
2022/02/18 02:47:04;;;;;;;10.97;4.63;;;11.00;99.90;;;;;;5030479;28;21003;-72
2022/02/18 02:49:30;;;;;;;15.23;4.80;;;11.00;99.90;;;;;;5034416;28;20850;-72
2022/02/18 02:51:56;;;;;;;11.30;3.77;;;11.00;99.90;;;;;;5019676;28;20999;-72
2022/02/18 02:54:22;;;;;;;13.23;4.97;;;11.00;99.90;;;;;;5031383;28;20790;-73
2022/02/18 02:56:48;;;;;;;14.37;3.80;;;11.00;99.90;;;;;;5031803;28;20446;-72
2022/02/18 02:59:14;;;;;;;10.07;4.10;;;11.00;99.90;;;;;;5034040;28;20459;-74
2022/02/18 03:01:39;;;;;;;11.53;4.40;;;10.90;99.90;;;;;;5033227;28;20548;-74
2022/02/18 03:04:05;;;;;;;13.57;3.93;;;11.00;99.90;;;;;;4998127;28;20212;-71
2022/02/18 03:06:31;;;;;;;16.93;3.70;;;11.00;99.90;;;;;;5035734;28;20275;-72
2022/02/18 03:08:57;;;;;;;14.77;3.60;;;11.00;99.90;;;;;;5030216;28;20195;-72
2022/02/18 03:11:24;;;;;;;9.93;4.00;;;11.00;99.90;;;;;;5020563;28;20528;-73
2022/02/18 03:13:51;;;;;;;11.90;3.47;;;11.00;99.90;;;;;;5033983;28;20727;-72
2022/02/18 03:16:19;;;;;;;10.53;3.67;;;11.00;99.90;;;;;;5031357;28;20881;-75
2022/02/18 03:18:45;;;;;;;11.50;4.07;;;11.00;99.90;;;;;;5031480;28;20554;-74
2022/02/18 03:21:12;;;;;;;17.53;3.87;;;11.00;99.90;;;;;;5033845;28;20948;-74
2022/02/18 03:23:38;;;;;;;8.80;3.40;;;11.00;99.90;;;;;;5032336;28;20470;-75
2022/02/18 03:26:06;;;;;;;13.67;3.33;;;11.00;99.90;;;;;;5031661;28;20448;-73
2022/02/18 03:28:31;;;;;;;10.10;3.07;;;11.00;99.90;;;;;;5014386;28;20470;-74
2022/02/18 03:30:59;;;;;;;8.70;3.10;;;11.00;99.90;;;;;;5030423;28;20477;-73
2022/02/18 03:33:25;;;;;;;13.97;3.87;;;11.00;99.90;;;;;;5031914;28;20661;-73
2022/02/18 03:35:51;;;;;;;11.63;3.20;;;11.00;99.90;;;;;;5030433;28;20516;-73
2022/02/18 03:38:17;;;;;;;9.70;4.03;;;11.00;99.90;;;;;;5012264;28;20841;-73
2022/02/18 03:40:43;;;;;;;11.07;3.30;;;11.00;99.90;;;;;;5036516;28;20207;-74
2022/02/18 03:43:08;;;;;;;13.60;3.77;;;11.10;99.90;;;;;;5033504;28;20212;-73
2022/02/18 03:45:34;;;;;;;10.73;2.80;;;11.00;99.90;;;;;;5033814;28;20287;-72
2022/02/18 03:48:00;;;;;;;18.60;3.70;;;11.00;99.90;;;;;;5030215;28;20207;-73
2022/02/18 03:50:25;;;;;;;10.00;2.80;;;11.10;99.90;;;;;;5015337;28;20850;-73
2022/02/18 03:52:56;;;;;;;16.80;3.77;;;11.00;99.90;;;;;;5027989;28;20208;-74
2022/02/18 03:55:21;;;;;;;9.13;3.30;;;11.00;99.90;;;;;;5034214;28;20206;-74
2022/02/18 03:57:47;;;;;;;8.50;3.00;;;11.00;99.90;;;;;;5032920;28;20952;-74
2022/02/18 04:00:13;;;;;;;6.37;3.10;;;11.10;99.90;;;;;;5033501;28;20209;-73
2022/02/18 04:02:39;;;;;;;12.67;3.53;;;11.10;99.90;;;;;;5011334;28;20655;-73
2022/02/18 04:05:05;;;;;;;10.20;3.20;;;11.10;99.90;;;;;;5031337;28;20491;-73
2022/02/18 04:07:30;;;;;;;13.07;3.37;;;11.10;99.90;;;;;;5031299;28;20272;-74
2022/02/18 04:09:56;;;;;;;10.83;3.43;;;11.10;99.90;;;;;;5032367;28;20528;-74
2022/02/18 04:12:22;;;;;;;8.70;3.10;;;11.10;99.90;;;;;;5036551;28;20216;-73
2022/02/18 04:14:48;;;;;;;8.87;3.03;;;11.10;99.90;;;;;;5036076;28;21023;-73
2022/02/18 04:17:14;;;;;;;16.17;3.30;;;11.10;99.90;;;;;;5035844;28;21175;-74
2022/02/18 04:19:40;;;;;;;16.43;3.47;;;11.20;99.90;;;;;;5035609;28;20541;-74
2022/02/18 04:22:06;;;;;;;9.33;3.70;;;11.20;99.90;;;;;;5031843;28;20203;-73
2022/02/18 04:24:31;;;;;;;19.33;3.53;;;11.10;99.90;;;;;;5018487;28;20192;-74
2022/02/18 04:26:57;;;;;;;16.40;3.97;;;11.10;99.90;;;;;;5035163;28;20846;-75
2022/02/18 04:29:23;;;;;;;10.40;3.60;;;11.10;99.90;;;;;;5035953;28;20643;-74
2022/02/18 04:31:48;;;;;;;11.27;4.10;;;11.20;99.90;;;;;;5034190;28;20196;-74
2022/02/18 04:34:14;;;;;;;11.07;3.80;;;11.20;99.90;;;;;;5035930;28;20203;-74
2022/02/18 04:36:40;;;;;;;9.20;2.73;;;11.20;99.90;;;;;;5036651;28;20608;-73
2022/02/18 04:39:06;;;;;;;14.90;3.10;;;11.20;99.90;;;;;;5035555;28;20233;-72
2022/02/18 04:41:33;;;;;;;7.93;2.90;;;11.20;99.90;;;;;;5023487;28;20987;-73
2022/02/18 04:43:59;;;;;;;14.23;3.73;;;11.20;99.90;;;;;;5036240;28;20196;-73
2022/02/18 04:46:25;;;;;;;15.17;3.80;;;11.20;99.90;;;;;;5034837;28;20446;-73
2022/02/18 04:48:52;;;;;;;9.73;3.30;;;11.20;99.90;;;;;;5033060;28;20492;-73
2022/02/18 04:51:18;;;;;;;11.10;4.30;;;11.20;99.90;;;;;;5035758;28;20187;-72
2022/02/18 04:53:43;;;;;;;16.20;3.03;;;11.20;99.90;;;;;;5032959;28;20882;-74
2022/02/18 04:56:09;;;;;;;11.30;3.33;;;11.20;99.90;;;;;;5035405;28;20434;-73
2022/02/18 04:58:36;;;;;;;11.50;3.30;;;11.20;99.90;;;;;;5039268;28;20203;-73
2022/02/18 05:01:02;;;;;;;10.43;3.20;;;11.20;99.90;;;;;;5040892;28;20204;-73
2022/02/18 05:03:28;;;;;;;10.53;3.57;;;11.20;99.90;;;;;;5037591;28;21165;-73
2022/02/18 05:05:53;;;;;;;5.50;2.97;;;11.20;99.90;;;;;;5037988;28;20438;-76
2022/02/18 05:08:19;;;;;;;10.47;3.00;;;11.30;99.90;;;;;;5040582;28;20275;-73
2022/02/18 05:10:44;;;;;;;8.60;2.60;;;11.20;99.90;;;;;;5020355;28;20188;-73
2022/02/18 05:13:10;;;;;;;8.63;3.30;;;11.20;99.90;;;;;;5040231;28;20417;-73
2022/02/18 05:15:35;;;;;;;15.00;3.83;;;11.20;99.90;;;;;;5038450;28;20187;-74
2022/02/18 05:18:05;;;;;;;9.30;4.27;;;11.20;99.90;;;;;;5034388;28;20191;-74
2022/02/18 05:20:31;;;;;;;10.90;3.10;;;11.20;99.90;;;;;;5037402;28;20212;-74
2022/02/18 05:22:58;;;;;;;12.43;3.40;;;11.20;99.90;;;;;;5019629;28;20462;-73
2022/02/18 05:25:27;;;;;;;13.70;3.90;;;11.30;99.90;;;;;;5037215;28;20276;-73
2022/02/18 05:27:53;;;;;;;10.53;3.47;;;11.20;99.90;;;;;;5037490;28;20439;-74
2022/02/18 05:30:19;;;;;;;9.80;3.93;;;11.30;99.90;;;;;;5035297;28;20427;-73
2022/02/18 05:32:45;;;;;;;8.00;3.40;;;11.30;99.90;;;;;;5037600;28;20222;-74
2022/02/18 05:35:11;;;;;;;10.17;5.53;;;11.30;99.90;;;;;;5039044;28;20433;-73
2022/02/18 05:37:36;;;;;;;9.87;2.93;;;11.40;99.90;;;;;;5039666;28;20187;-73
2022/02/18 05:40:03;;;;;;;17.53;3.40;;;11.40;99.90;;;;;;5021994;28;20207;-73
2022/02/18 05:42:28;;;;;;;11.43;2.70;;;11.40;99.90;;;;;;5039993;28;20204;-73
2022/02/18 05:44:54;;;;;;;10.43;3.40;;;11.40;99.90;;;;;;5036559;28;20438;-73
2022/02/18 05:47:19;;;;;;;7.83;3.33;;;11.50;99.90;;;;;;5035468;28;20214;-72
2022/02/18 05:49:45;;;;;;;12.37;3.73;;;11.50;99.90;;;;;;5037678;28;20200;-73
2022/02/18 05:52:11;;;;;;;13.17;4.20;;;11.50;99.90;;;;;;5034823;28;20188;-73
2022/02/18 05:54:36;;;;;;;12.50;3.70;;;11.60;99.90;;;;;;5033175;28;20185;-73
2022/02/18 05:57:02;;;;;;;7.07;3.23;;;11.60;99.90;;;;;;5036676;28;20184;-73
2022/02/18 05:59:28;;;;;;;8.20;3.40;;;11.50;99.90;;;;;;5036433;28;20192;-74
2022/02/18 06:01:53;;;;;;;8.30;2.80;;;11.50;99.90;;;;;;5036220;28;20223;-74
2022/02/18 06:04:19;;;;;;;13.00;3.00;;;11.50;99.90;;;;;;5035466;28;20220;-74
2022/02/18 06:06:45;;;;;;;13.03;4.97;;;11.50;99.90;;;;;;5034905;28;20218;-74
2022/02/18 06:09:11;;;;;;;19.13;3.60;;;11.40;99.90;;;;;;5031947;28;20265;-75
2022/02/18 06:11:37;;;;;;;12.30;3.43;;;11.40;99.90;;;;;;5034135;28;20484;-74
2022/02/18 06:14:03;;;;;;;15.90;3.37;;;11.40;99.90;;;;;;5017849;28;20465;-74
2022/02/18 06:16:29;;;;;;;9.50;3.30;;;11.40;99.90;;;;;;5036527;28;20450;-74
2022/02/18 06:18:55;;;;;;;11.07;3.50;;;11.40;99.90;;;;;;5035627;28;20964;-74
2022/02/18 06:21:21;;;;;;;15.63;4.10;;;11.30;99.90;;;;;;5030737;28;20295;-75
2022/02/18 06:23:47;;;;;;;10.83;3.90;;;11.30;99.90;;;;;;5022418;28;20211;-74
2022/02/18 06:26:12;;;;;;;9.53;3.10;;;11.40;99.90;;;;;;5034904;28;21022;-72
2022/02/18 06:28:40;;;;;;;8.97;3.20;;;11.30;99.90;;;;;;5034878;28;20191;-75
2022/02/18 06:31:06;;;;;;;6.73;3.03;;;11.30;99.90;;;;;;5033291;28;20746;-74
2022/02/18 06:33:32;;;;;;;14.97;3.17;;;11.40;99.90;;;;;;5036944;28;20446;-74
2022/02/18 06:35:57;;;;;;;12.93;3.13;;;11.40;99.90;;;;;;5035581;28;20986;-72
2022/02/18 06:38:23;;;;;;;16.10;3.13;;;11.40;99.90;;;;;;5035132;28;20194;-72
2022/02/18 06:40:48;;;;;;;10.23;3.30;;;11.40;99.90;;;;;;5035883;28;20230;-74
2022/02/18 06:43:14;;;;;;;15.90;3.20;;;11.40;99.90;;;;;;5034507;28;20220;-73
2022/02/18 06:45:39;;;;;;;12.30;3.07;;;11.40;99.90;;;;;;5036893;28;20215;-73
2022/02/18 06:48:07;;;;;;;8.07;3.00;;;11.50;99.90;;;;;;5035319;28;20555;-73
2022/02/18 06:50:33;;;;;;;12.97;3.10;;;11.50;99.90;;;;;;5034234;28;20264;-73
2022/02/18 06:52:59;;;;;;;7.63;3.27;;;11.50;99.90;;;;;;5035300;28;20463;-72
2022/02/18 06:55:25;;;;;;;11.87;2.73;;;11.50;99.90;;;;;;5037418;28;20442;-73
2022/02/18 06:57:54;;;;;;;11.37;3.10;;;11.60;99.90;;;;;;5034474;28;20192;-73
2022/02/18 07:00:20;;;;;;;12.23;2.70;;;11.50;99.90;;;;;;5039403;28;20223;-73
2022/02/18 07:02:45;;;;;;;12.83;4.13;;;11.50;99.90;;;;;;5021318;28;20825;-73
2022/02/18 07:05:16;;;;;;;12.50;3.37;;;11.50;99.90;;;;;;5036032;28;20230;-74
2022/02/18 07:07:43;;;;;;;9.87;3.70;;;11.50;99.90;;;;;;5035698;28;20621;-74
2022/02/18 07:10:10;;;;;;;10.30;3.20;;;11.50;99.90;;;;;;5037698;28;20469;-73
2022/02/18 07:12:37;;;;;;;12.50;3.60;;;11.50;99.90;;;;;;5031967;28;20466;-73
2022/02/18 07:15:04;;;;;;;8.90;3.50;;;11.50;99.90;;;;;;5037086;28;20485;-74
2022/02/18 07:17:30;;;;;;;8.97;2.90;;;11.50;99.90;;;;;;5034843;28;20454;-72
2022/02/18 07:19:57;;;;;;;15.00;3.60;;;11.60;99.90;;;;;;5035186;28;20557;-74
2022/02/18 07:22:23;;;;;;;12.03;2.87;;;11.60;99.90;;;;;;5036940;28;20462;-72
2022/02/18 07:24:50;;;;;;;7.20;3.03;;;11.60;99.90;;;;;;5019623;28;20442;-73
2022/02/18 07:27:16;;;;;;;7.10;2.73;;;11.50;99.90;;;;;;5035066;28;20521;-74
2022/02/18 07:29:42;;;;;;;11.00;3.40;;;11.50;99.90;;;;;;5022912;28;21078;-74
2022/02/18 07:32:09;;;;;;;11.03;3.53;;;11.60;99.90;;;;;;5034923;28;20831;-71
2022/02/18 07:34:35;;;;;;;6.87;3.13;;;11.70;99.90;;;;;;5035454;28;20437;-72
2022/02/18 07:37:00;;;;;;;6.00;2.80;;;11.70;99.90;;;;;;5035053;28;20468;-73
2022/02/18 07:39:26;;;;;;;10.70;3.00;;;11.60;99.90;;;;;;5033882;28;20196;-74
2022/02/18 07:41:51;;;;;;;10.57;3.00;;;11.60;99.90;;;;;;5034820;28;20208;-74
2022/02/18 07:44:17;;;;;;;7.10;2.63;;;11.60;99.90;;;;;;5033118;28;20627;-71
2022/02/18 07:46:43;;;;;;;8.60;3.20;;;11.60;99.90;;;;;;5038089;28;20191;-72
2022/02/18 07:49:10;;;;;;;9.93;3.57;;;11.60;99.90;;;;;;5037917;28;21764;-72
2022/02/18 07:51:37;;;;;;;9.10;4.03;;;11.60;99.90;;;;;;5042907;28;20442;-72
2022/02/18 07:54:03;;;;;;;8.70;3.07;;;11.60;99.90;;;;;;5037715;28;20461;-73
2022/02/18 07:56:29;;;;;;;8.50;2.53;;;11.70;99.90;;;;;;5040640;28;20449;-71
2022/02/18 07:58:55;;;;;;;6.53;2.20;;;11.70;99.90;;;;;;5038867;28;20442;-70
2022/02/18 08:01:20;;;;;;;10.20;2.87;;;11.80;99.90;;;;;;5036976;28;20212;-71
2022/02/18 08:03:47;;;;;;;10.10;3.70;;;11.90;99.90;;;;;;5039967;28;20604;-70
2022/02/18 08:06:14;;;;;;;4.60;2.10;;;12.00;99.90;;;;;;5036652;28;20188;-71
2022/02/18 08:08:42;;;;;;;4.33;2.23;;;12.00;99.90;;;;;;5036548;28;20818;-71
2022/02/18 08:11:09;;;;;;;9.13;1.77;;;12.10;99.90;;;;;;5037184;28;20445;-70
2022/02/18 08:13:35;;;;;;;5.20;2.03;;;12.10;99.90;;;;;;5038151;28;20496;-72
2022/02/18 08:16:00;;;;;;;4.87;2.30;;;12.20;99.90;;;;;;5037081;28;20495;-71
2022/02/18 08:18:26;;;;;;;4.53;2.07;;;12.20;99.90;;;;;;5020386;28;20245;-69
2022/02/18 08:20:52;;;;;;;3.80;2.00;;;12.20;99.90;;;;;;5043102;28;20311;-70
2022/02/18 08:23:18;;;;;;;3.83;1.80;;;12.30;99.90;;;;;;5035631;28;20247;-72
2022/02/18 08:25:44;;;;;;;3.33;1.57;;;12.30;99.90;;;;;;5041580;28;20278;-74
2022/02/18 08:28:10;;;;;;;5.43;2.20;;;12.40;99.90;;;;;;5021353;28;20572;-72
2022/02/18 08:30:36;;;;;;;2.30;1.33;;;12.40;99.90;;;;;;5036768;28;20188;-70
2022/02/18 08:33:01;;;;;;;3.03;1.90;;;12.40;99.90;;;;;;5038166;28;20458;-72
2022/02/18 08:35:28;;;;;;;3.30;2.00;;;12.50;99.90;;;;;;5020915;28;20223;-71
2022/02/18 08:37:54;;;;;;;4.43;1.80;;;12.50;99.90;;;;;;5036873;28;20671;-71
2022/02/18 08:40:20;;;;;;;2.93;1.60;;;12.60;99.90;;;;;;5040591;28;20480;-70
2022/02/18 08:42:46;;;;;;;2.50;1.40;;;12.60;99.90;;;;;;5020554;28;20475;-70
2022/02/18 08:45:11;;;;;;;2.60;1.90;;;12.70;99.90;;;;;;5037488;28;20198;-70
2022/02/18 08:47:38;;;;;;;2.40;1.17;;;12.70;99.90;;;;;;5040167;28;20255;-71
2022/02/18 08:50:06;;;;;;;3.50;1.90;;;12.80;99.90;;;;;;5037374;28;20184;-70
2022/02/18 08:52:32;;;;;;;3.53;1.60;;;12.80;99.90;;;;;;5038976;28;20935;-70
2022/02/18 08:54:57;;;;;;;2.67;1.50;;;12.90;99.90;;;;;;5040175;28;20446;-70
2022/02/18 08:57:23;;;;;;;2.63;1.40;;;12.90;99.90;;;;;;5035553;28;20294;-70
2022/02/18 08:59:49;;;;;;;4.17;1.30;;;13.00;99.90;;;;;;5036440;28;20196;-69
2022/02/18 09:02:15;;;;;;;3.13;1.43;;;13.00;99.90;;;;;;5037920;28;20206;-70
2022/02/18 09:04:41;;;;;;;2.10;1.30;;;13.00;99.90;;;;;;5035058;28;20191;-70
2022/02/18 09:07:06;;;;;;;2.40;1.07;;;13.10;99.90;;;;;;5033533;28;20623;-68
2022/02/18 09:09:32;;;;;;;3.10;1.40;;;13.20;99.90;;;;;;5037397;28;20478;-69
2022/02/18 09:11:57;;;;;;;1.90;1.30;;;13.20;99.90;;;;;;5036085;28;20216;-70
2022/02/18 09:14:23;;;;;;;12.90;2.13;;;13.20;99.90;;;;;;5038121;28;20909;-71
2022/02/18 09:16:49;;;;;;;2.27;1.33;;;13.30;99.90;;;;;;5035175;28;20192;-72
2022/02/18 09:19:15;;;;;;;2.13;1.43;;;13.30;99.90;;;;;;5037495;28;20187;-71
2022/02/18 09:21:40;;;;;;;3.40;1.53;;;13.40;99.90;;;;;;5036375;28;20306;-73
2022/02/18 09:24:06;;;;;;;1.73;1.47;;;13.40;99.90;;;;;;5039116;28;20838;-69
2022/02/18 09:26:32;;;;;;;2.13;1.43;;;13.40;99.90;;;;;;5034389;28;20212;-70
2022/02/18 09:28:58;;;;;;;2.73;1.20;;;13.40;99.90;;;;;;5019430;28;20196;-71
2022/02/18 09:31:24;;;;;;;2.40;1.43;;;13.50;99.90;;;;;;5037464;28;20600;-71
2022/02/18 09:33:50;;;;;;;2.93;1.50;;;13.50;99.90;;;;;;5039489;28;20222;-71
2022/02/18 09:36:17;;;;;;;2.43;1.30;;;13.60;99.90;;;;;;5035607;28;20977;-72
2022/02/18 09:38:42;;;;;;;3.40;1.70;;;13.60;99.90;;;;;;5036505;28;20492;-71
2022/02/18 09:41:08;;;;;;;1.40;1.10;;;13.70;99.90;;;;;;5035794;28;20558;-70
2022/02/18 09:43:36;;;;;;;5.23;1.63;;;13.70;99.90;;;;;;5038914;28;20215;-70
2022/02/18 09:46:03;;;;;;;2.30;1.50;;;13.70;99.90;;;;;;5022637;28;20526;-71
2022/02/18 09:48:29;;;;;;;7.73;2.13;;;13.70;99.90;;;;;;5032188;28;20542;-71
2022/02/18 09:50:56;;;;;;;3.63;1.60;;;13.70;99.90;;;;;;5037711;28;20449;-71
2022/02/18 09:53:22;;;;;;;2.90;1.67;;;13.80;99.90;;;;;;5021624;28;20698;-72
2022/02/18 09:55:48;;;;;;;2.20;1.30;;;13.80;99.90;;;;;;5037596;28;20503;-75
2022/02/18 09:58:22;;;;;;;7.33;1.43;;;13.90;99.90;;;;;;5038307;28;20249;-73
2022/02/18 10:00:48;;;;;;;2.63;1.47;;;13.90;99.90;;;;;;5037524;28;20462;-73
2022/02/18 10:03:14;;;;;;;4.23;1.67;;;13.90;99.90;;;;;;5038709;28;20958;-73
2022/02/18 10:05:40;;;;;;;2.67;1.40;;;13.90;99.90;;;;;;5039001;28;20505;-73
2022/02/18 10:08:08;;;;;;;6.80;1.40;;;13.90;99.90;;;;;;5033683;28;20534;-72
2022/02/18 10:10:36;;;;;;;1.83;1.60;;;13.90;99.90;;;;;;5034084;28;20195;-74
2022/02/18 10:13:03;;;;;;;1.97;1.40;;;14.00;99.90;;;;;;5034954;28;21016;-72
2022/02/18 10:15:41;;;;;;;3.50;1.67;;;14.00;99.90;;;;;;5034688;28;20465;-74
2022/02/18 10:18:09;;;;;;;3.30;1.40;;;14.10;99.90;;;;;;5034130;28;20435;-72
2022/02/18 10:20:36;;;;;;;2.80;1.57;;;14.10;99.90;;;;;;5036511;28;20482;-71
2022/02/18 10:23:10;;;;;;;2.10;1.70;;;14.20;99.90;;;;;;5037190;28;20466;-74
2022/02/18 10:25:38;;;;;;;5.87;1.70;;;14.30;99.90;;;;;;5035273;28;20435;-74
2022/02/18 10:28:07;;;;;;;2.70;1.50;;;14.40;99.90;;;;;;5032932;28;20978;-72
2022/02/18 10:30:33;;;;;;;1.63;1.47;;;14.50;99.90;;;;;;5030622;28;20973;-72
2022/02/18 10:33:11;;;;;;;3.17;1.73;;;14.50;99.90;;;;;;5036233;28;20469;-72
2022/02/18 10:35:38;;;;;;;2.70;1.43;;;14.70;99.90;;;;;;5032853;28;20529;-73
2022/02/18 10:38:04;;;;;;;4.17;1.60;;;14.70;99.90;;;;;;5038789;28;20504;-71
2022/02/18 10:40:31;;;;;;;2.03;1.60;;;14.80;99.90;;;;;;5034590;28;20457;-72
2022/02/18 10:43:07;;;;;;;5.77;1.87;;;14.90;99.90;;;;;;5017352;28;22258;-72
2022/02/18 10:45:33;;;;;;;2.80;1.90;;;15.10;99.90;;;;;;5036240;28;20439;-72
2022/02/18 10:48:07;;;;;;;2.17;1.30;;;15.10;99.90;;;;;;5039294;28;20442;-73
2022/02/18 10:50:34;;;;;;;2.80;1.27;;;15.20;99.90;;;;;;5020082;28;20649;-72
2022/02/18 10:53:17;;;;;;;3.23;1.60;;;15.10;99.90;;;;;;5035758;28;20469;-73
2022/02/18 10:56:00;;;;;;;2.53;1.70;;;15.10;99.90;;;;;;5035757;28;20435;-72
2022/02/18 10:58:30;;;;;;;3.20;1.67;;;15.20;99.90;;;;;;5036107;28;20492;-72
2022/02/18 11:01:23;;;;;;;1.70;1.40;;;15.40;99.90;;;;;;5033347;28;20577;-70
2022/02/18 11:03:58;;;;;;;3.10;1.60;;;15.40;99.90;;;;;;5031882;28;20532;-73
2022/02/18 11:06:28;;;;;;;2.27;1.50;;;15.40;99.90;;;;;;5034328;28;20442;-71
2022/02/18 11:09:01;;;;;;;6.80;3.70;;;15.50;99.90;;;;;;5037183;28;20993;-75
2022/02/18 11:11:31;;;;;;;2.40;1.90;;;15.60;99.90;;;;;;5036514;28;21133;-75
2022/02/18 11:14:01;;;;;;;2.53;2.33;;;15.70;99.90;;;;;;5036157;28;20846;-75
2022/02/18 11:16:29;;;;;;;2.70;1.47;;;15.70;99.90;;;;;;5038095;28;20438;-77
2022/02/18 11:18:56;;;;;;;2.17;1.50;;;15.70;99.90;;;;;;5035794;28;20932;-73
2022/02/18 11:21:22;;;;;;;1.60;1.17;;;15.60;99.90;;;;;;5032232;28;20469;-75
2022/02/18 11:23:48;;;;;;;3.70;1.70;;;15.60;99.90;;;;;;5037790;28;20458;-74
2022/02/18 11:26:19;;;;;;;2.90;1.70;;;15.60;99.90;;;;;;5035296;28;20929;-76
2022/02/18 11:28:46;;;;;;;3.73;1.63;;;15.70;99.90;;;;;;5034974;28;20267;-75
2022/02/18 11:31:40;;;;;;;2.00;1.70;;;15.80;99.90;;;;;;5032586;28;20868;-73
2022/02/18 11:34:44;;;;;;;3.20;1.50;;;15.80;99.90;;;;;;5026754;28;20467;-75
2022/02/18 11:37:29;;;;;;;2.43;1.30;;;15.90;99.90;;;;;;5030684;28;20453;-75
2022/02/18 11:40:19;;;;;;;5.33;2.40;;;15.90;99.90;;;;;;5028966;28;20446;-74
2022/02/18 11:42:52;;;;;;;3.67;1.63;;;15.90;99.90;;;;;;5028078;28;20454;-70
2022/02/18 11:45:18;;;;;;;2.70;1.70;;;16.00;99.90;;;;;;5031894;28;20815;-72
2022/02/18 11:47:48;;;;;;;1.83;1.60;;;16.10;99.90;;;;;;5030449;28;20451;-72
2022/02/18 11:50:16;;;;;;;2.07;1.60;;;16.10;99.90;;;;;;5029862;28;20454;-72
2022/02/18 11:52:50;;;;;;;2.70;1.40;;;16.10;99.90;;;;;;5031838;28;20983;-74
2022/02/18 11:55:36;;;;;;;2.30;1.50;;;16.00;99.90;;;;;;5029072;28;20439;-75
2022/02/18 11:58:13;;;;;;;2.50;1.50;;;16.20;99.90;;;;;;5029622;28;20568;-73
2022/02/18 12:00:48;;;;;;;4.17;1.90;;;16.20;99.90;;;;;;5029703;28;20470;-74
2022/02/18 12:03:17;;;;;;;3.10;1.60;;;16.10;99.90;;;;;;5032025;28;20611;-75
2022/02/18 12:06:13;;;;;;;3.77;1.77;;;16.00;99.90;;;;;;5031772;28;20661;-77
2022/02/18 12:08:47;;;;;;;3.00;1.90;;;16.00;99.90;;;;;;5027547;28;20451;-73
2022/02/18 12:11:16;;;;;;;2.47;2.00;;;16.00;99.90;;;;;;5030950;28;20445;-71
2022/02/18 12:13:51;;;;;;;1.80;1.70;;;16.00;99.90;;;;;;5028901;28;20923;-73
2022/02/18 12:16:18;;;;;;;1.73;1.47;;;16.10;99.90;;;;;;5031466;28;20581;-72
2022/02/18 12:19:04;;;;;;;3.30;1.97;;;16.00;99.90;;;;;;5016575;28;20835;-72
2022/02/18 12:21:30;;;;;;;3.63;1.77;;;16.00;99.90;;;;;;5019052;28;20998;-74
2022/02/18 12:23:55;;;;;;;4.17;2.00;;;16.10;99.90;;;;;;5034765;28;20457;-73
2022/02/18 12:26:24;;;;;;;9.43;2.37;;;16.10;99.90;;;;;;5034100;28;20203;-75
2022/02/18 12:29:19;;;;;;;4.03;2.10;;;16.10;99.90;;;;;;5036638;28;20196;-77
2022/02/18 12:31:54;;;;;;;4.77;2.27;;;16.30;99.90;;;;;;5036808;28;20454;-76
2022/02/18 12:34:31;;;;;;;3.50;2.03;;;16.20;99.90;;;;;;5039672;28;20571;-74
2022/02/18 12:36:57;;;;;;;6.07;2.20;;;16.10;99.90;;;;;;5036189;28;20454;-75
2022/02/18 12:39:43;;;;;;;3.23;2.03;;;16.20;99.90;;;;;;5037408;28;20426;-75
2022/02/18 12:42:11;;;;;;;7.23;4.43;;;16.20;99.90;;;;;;5038215;28;20552;-73
2022/02/18 12:44:45;;;;;;;4.83;2.10;;;16.50;99.90;;;;;;5018974;28;20442;-71